Time;durP1;ratioP1;P1;durP2;ratioP2;P2;SDS_P1;SDS_P2;PMS_P1;PMS_P2;Temp;Humidity;BMP_temperature;BMP_pressure;BME280_temperature;BME280_humidity;BME280_pressure;Samples;Min_cycle;Max_cycle;Signal;HPM_P1;HPM_P2
2021/03/20 00:00:57;;;;;;;0.77;0.77;;;;;;;;;;5134059;27;20460;-67
2021/03/20 00:03:23;;;;;;;0.95;0.77;;;;;;;;;;5134197;27;20027;-67
2021/03/20 00:05:49;;;;;;;1.23;0.95;;;;;;;;;;5134006;27;20039;-67
2021/03/20 00:08:18;;;;;;;0.65;0.50;;;;;;;;;;5133642;27;20058;-67
2021/03/20 00:10:44;;;;;;;0.77;0.70;;;;;;;;;;5133920;27;20058;-68
2021/03/20 00:13:10;;;;;;;0.98;0.82;;;;;;;;;;5133898;27;20030;-67
2021/03/20 00:15:36;;;;;;;2.90;0.88;;;;;;;;;;5133932;27;20537;-68
2021/03/20 00:18:03;;;;;;;1.83;1.00;;;;;;;;;;5133163;27;20030;-67
2021/03/20 00:20:30;;;;;;;1.08;0.85;;;;;;;;;;5133639;27;20031;-67
2021/03/20 00:22:56;;;;;;;0.80;0.80;;;;;;;;;;5133991;27;20023;-67
2021/03/20 00:25:23;;;;;;;0.40;0.40;;;;;;;;;;5133601;27;20043;-67
2021/03/20 00:27:49;;;;;;;0.63;0.63;;;;;;;;;;5133857;27;20447;-67
2021/03/20 00:30:16;;;;;;;0.90;0.70;;;;;;;;;;5133463;27;20023;-67
2021/03/20 00:32:42;;;;;;;0.50;0.50;;;;;;;;;;5133652;27;20039;-67
2021/03/20 00:35:09;;;;;;;0.73;0.68;;;;;;;;;;5133114;27;20232;-67
2021/03/20 00:37:36;;;;;;;0.60;0.60;;;;;;;;;;5133185;27;20080;-67
2021/03/20 00:40:03;;;;;;;0.50;0.50;;;;;;;;;;5132728;27;20023;-67
2021/03/20 00:42:29;;;;;;;0.70;0.70;;;;;;;;;;5133923;27;20114;-67
2021/03/20 00:44:55;;;;;;;0.75;0.57;;;;;;;;;;5134060;27;20031;-67
2021/03/20 00:47:21;;;;;;;0.60;0.55;;;;;;;;;;5133367;27;20110;-67
2021/03/20 00:49:48;;;;;;;0.80;0.63;;;;;;;;;;5133507;27;20025;-67
2021/03/20 00:52:14;;;;;;;0.50;0.50;;;;;;;;;;5131395;27;20023;-67
2021/03/20 00:54:40;;;;;;;0.35;0.35;;;;;;;;;;5134091;27;20501;-67
2021/03/20 00:57:06;;;;;;;1.38;0.80;;;;;;;;;;5132562;27;20385;-67
2021/03/20 00:59:32;;;;;;;0.68;0.43;;;;;;;;;;5132506;27;20051;-67
2021/03/20 01:01:58;;;;;;;0.65;0.50;;;;;;;;;;5133025;27;20030;-67
2021/03/20 01:04:24;;;;;;;0.68;0.57;;;;;;;;;;5133209;27;20027;-67
2021/03/20 01:06:51;;;;;;;0.50;0.50;;;;;;;;;;5133342;27;20042;-67
2021/03/20 01:09:17;;;;;;;0.38;0.38;;;;;;;;;;5132721;27;20047;-68
2021/03/20 01:11:43;;;;;;;0.40;0.40;;;;;;;;;;5132929;27;20508;-67
2021/03/20 01:14:09;;;;;;;0.70;0.70;;;;;;;;;;5132308;27;20401;-67
2021/03/20 01:16:35;;;;;;;0.55;0.55;;;;;;;;;;5133208;27;20027;-67
2021/03/20 01:19:01;;;;;;;0.45;0.45;;;;;;;;;;5132577;27;20058;-67
2021/03/20 01:21:27;;;;;;;0.30;0.30;;;;;;;;;;5132857;27;20062;-67
2021/03/20 01:23:54;;;;;;;0.40;0.30;;;;;;;;;;5133369;27;20035;-67
2021/03/20 01:26:20;;;;;;;0.22;0.22;;;;;;;;;;5132324;27;20643;-67
2021/03/20 01:28:47;;;;;;;0.75;0.70;;;;;;;;;;5132751;27;20031;-68
2021/03/20 01:31:13;;;;;;;0.68;0.65;;;;;;;;;;5132029;27;20453;-67
2021/03/20 01:33:39;;;;;;;1.55;0.85;;;;;;;;;;5132923;27;20031;-67
2021/03/20 01:36:06;;;;;;;0.22;0.22;;;;;;;;;;5132311;27;20023;-67
2021/03/20 01:38:32;;;;;;;0.85;0.43;;;;;;;;;;5132740;27;20042;-68
2021/03/20 01:41:00;;;;;;;0.82;0.70;;;;;;;;;;5131962;27;20023;-67
2021/03/20 01:43:27;;;;;;;0.50;0.50;;;;;;;;;;5133018;27;20059;-67
2021/03/20 01:45:54;;;;;;;0.50;0.50;;;;;;;;;;5132743;27;20039;-67
2021/03/20 01:48:33;;;;;;;0.60;0.60;;;;;;;;;;5132231;27;20481;-67
2021/03/20 01:51:00;;;;;;;1.05;0.45;;;;;;;;;;5132168;27;20046;-67
2021/03/20 01:53:30;;;;;;;0.47;0.40;;;;;;;;;;5132534;27;20634;-67
2021/03/20 01:55:56;;;;;;;0.25;0.25;;;;;;;;;;5132394;27;20069;-67
2021/03/20 01:58:22;;;;;;;1.17;1.00;;;;;;;;;;5131350;27;20130;-67
2021/03/20 02:00:49;;;;;;;0.32;0.32;;;;;;;;;;5132106;27;20110;-67
2021/03/20 02:03:17;;;;;;;0.40;0.40;;;;;;;;;;5131180;27;20066;-67
2021/03/20 02:05:43;;;;;;;0.40;0.40;;;;;;;;;;5132109;27;20176;-67
2021/03/20 02:08:12;;;;;;;0.52;0.50;;;;;;;;;;5131287;27;20031;-67
2021/03/20 02:10:40;;;;;;;0.22;0.22;;;;;;;;;;5131403;27;20051;-67
2021/03/20 02:13:18;;;;;;;0.35;0.35;;;;;;;;;;5131075;27;20485;-67
2021/03/20 02:15:46;;;;;;;0.40;0.40;;;;;;;;;;5132230;27;20387;-67
2021/03/20 02:18:12;;;;;;;0.77;0.60;;;;;;;;;;5131430;27;20031;-67
2021/03/20 02:20:56;;;;;;;0.50;0.50;;;;;;;;;;5131348;27;20072;-67
2021/03/20 02:23:31;;;;;;;0.40;0.40;;;;;;;;;;5131740;27;20434;-67
2021/03/20 02:26:04;;;;;;;0.50;0.50;;;;;;;;;;5131569;27;20091;-67
2021/03/20 02:28:48;;;;;;;0.50;0.50;;;;;;;;;;5131737;27;20031;-67
2021/03/20 02:31:30;;;;;;;0.30;0.30;;;;;;;;;;5130854;27;20390;-67
2021/03/20 02:34:15;;;;;;;0.52;0.52;;;;;;;;;;5131089;27;20076;-67
2021/03/20 02:36:46;;;;;;;0.60;0.60;;;;;;;;;;5131836;27;20027;-67
2021/03/20 02:39:27;;;;;;;1.48;0.43;;;;;;;;;;5130693;27;20023;-67
2021/03/20 02:42:09;;;;;;;0.35;0.35;;;;;;;;;;5131013;27;20038;-67
2021/03/20 02:44:45;;;;;;;0.75;0.75;;;;;;;;;;5131759;27;20027;-67
2021/03/20 02:47:17;;;;;;;0.30;0.30;;;;;;;;;;5130895;27;20035;-67
2021/03/20 02:50:02;;;;;;;0.30;0.30;;;;;;;;;;5131223;27;20400;-67
2021/03/20 02:52:31;;;;;;;0.82;0.70;;;;;;;;;;5131801;27;20047;-67
2021/03/20 02:55:00;;;;;;;0.75;0.75;;;;;;;;;;5130796;27;20042;-66
2021/03/20 02:57:29;;;;;;;0.20;0.20;;;;;;;;;;5130962;27;20019;-67
2021/03/20 03:00:01;;;;;;;0.52;0.40;;;;;;;;;;5130725;27;20051;-67
2021/03/20 03:02:29;;;;;;;1.25;0.93;;;;;;;;;;5131221;27;20031;-67
2021/03/20 03:05:05;;;;;;;0.52;0.32;;;;;;;;;;5130789;27;20034;-67
2021/03/20 03:07:35;;;;;;;0.60;0.60;;;;;;;;;;5131090;27;20385;-67
2021/03/20 03:10:14;;;;;;;1.60;0.47;;;;;;;;;;5130404;27;20133;-67
2021/03/20 03:12:43;;;;;;;0.85;0.80;;;;;;;;;;5130815;27;20105;-67
2021/03/20 03:15:14;;;;;;;0.45;0.40;;;;;;;;;;5129999;27;20058;-67
2021/03/20 03:17:42;;;;;;;1.45;0.85;;;;;;;;;;5130823;27;20042;-67
2021/03/20 03:20:12;;;;;;;0.50;0.50;;;;;;;;;;5130310;27;20038;-67
2021/03/20 03:22:47;;;;;;;0.52;0.40;;;;;;;;;;5130985;28;20054;-67
2021/03/20 03:25:14;;;;;;;0.60;0.60;;;;;;;;;;5130061;28;20031;-67
2021/03/20 03:27:43;;;;;;;0.70;0.70;;;;;;;;;;5131123;28;20027;-67
2021/03/20 03:30:12;;;;;;;0.93;0.80;;;;;;;;;;5130181;28;20532;-67
2021/03/20 03:32:49;;;;;;;0.55;0.40;;;;;;;;;;5130444;28;20041;-67
2021/03/20 03:35:24;;;;;;;0.80;0.80;;;;;;;;;;5129931;28;20099;-67
2021/03/20 03:38:09;;;;;;;1.85;0.82;;;;;;;;;;5130856;28;20026;-67
2021/03/20 03:40:35;;;;;;;0.50;0.50;;;;;;;;;;5130362;28;20366;-67
2021/03/20 03:43:01;;;;;;;0.50;0.50;;;;;;;;;;5129610;28;20034;-67
2021/03/20 03:45:28;;;;;;;1.10;0.75;;;;;;;;;;5130354;28;20394;-67
2021/03/20 03:47:54;;;;;;;0.47;0.47;;;;;;;;;;5130377;28;20102;-67
2021/03/20 03:50:22;;;;;;;0.63;0.47;;;;;;;;;;5129748;28;20055;-67
2021/03/20 03:52:48;;;;;;;0.43;0.43;;;;;;;;;;5130690;28;20148;-67
2021/03/20 03:55:15;;;;;;;0.30;0.30;;;;;;;;;;5130011;28;20023;-67
2021/03/20 03:57:47;;;;;;;0.77;0.55;;;;;;;;;;5129961;28;20076;-67
2021/03/20 04:00:13;;;;;;;0.85;0.85;;;;;;;;;;5128586;28;20050;-67
2021/03/20 04:02:39;;;;;;;0.60;0.50;;;;;;;;;;5129757;28;20023;-67
2021/03/20 04:05:08;;;;;;;0.43;0.43;;;;;;;;;;5129268;28;20103;-67
2021/03/20 04:07:39;;;;;;;0.55;0.55;;;;;;;;;;5130161;28;20042;-67
2021/03/20 04:10:24;;;;;;;0.65;0.55;;;;;;;;;;5129644;28;20496;-67
2021/03/20 04:12:50;;;;;;;0.93;0.40;;;;;;;;;;5130262;28;20019;-67
2021/03/20 04:15:22;;;;;;;0.73;0.60;;;;;;;;;;5129392;28;20475;-67
2021/03/20 04:17:54;;;;;;;0.60;0.60;;;;;;;;;;5130390;28;20470;-67
2021/03/20 04:20:24;;;;;;;0.52;0.50;;;;;;;;;;5128999;28;20498;-67
2021/03/20 04:22:50;;;;;;;0.38;0.38;;;;;;;;;;5130171;28;20394;-67
2021/03/20 04:25:25;;;;;;;0.98;0.75;;;;;;;;;;5129369;27;20039;-67
2021/03/20 04:27:56;;;;;;;0.50;0.50;;;;;;;;;;5133807;27;20450;-67
2021/03/20 04:30:23;;;;;;;0.63;0.60;;;;;;;;;;5133351;27;20042;-67
2021/03/20 04:32:52;;;;;;;0.65;0.65;;;;;;;;;;5133244;27;20503;-67
2021/03/20 04:35:18;;;;;;;0.68;0.68;;;;;;;;;;5133257;27;20073;-67
2021/03/20 04:37:49;;;;;;;0.57;0.57;;;;;;;;;;5133851;27;20023;-67
2021/03/20 04:40:34;;;;;;;0.68;0.50;;;;;;;;;;5132790;27;20485;-67
2021/03/20 04:43:00;;;;;;;0.60;0.47;;;;;;;;;;5133459;27;20027;-67
2021/03/20 04:45:26;;;;;;;0.70;0.70;;;;;;;;;;5133814;27;20039;-67
2021/03/20 04:47:54;;;;;;;0.90;0.90;;;;;;;;;;5133601;27;20027;-67
2021/03/20 04:50:22;;;;;;;0.50;0.50;;;;;;;;;;5132684;27;20027;-67
2021/03/20 04:52:50;;;;;;;0.70;0.68;;;;;;;;;;5133739;27;20031;-67
2021/03/20 04:55:17;;;;;;;1.70;1.02;;;;;;;;;;5133235;27;20034;-67
2021/03/20 04:57:50;;;;;;;0.40;0.40;;;;;;;;;;5132619;27;20030;-67
2021/03/20 05:00:26;;;;;;;0.30;0.30;;;;;;;;;;5132056;27;20488;-67
2021/03/20 05:02:54;;;;;;;0.60;0.60;;;;;;;;;;5133008;27;20034;-67
2021/03/20 05:05:20;;;;;;;1.00;1.00;;;;;;;;;;5132730;27;20058;-67
2021/03/20 05:07:47;;;;;;;0.50;0.50;;;;;;;;;;5133440;27;20023;-67
2021/03/20 05:10:24;;;;;;;0.95;0.40;;;;;;;;;;5132638;27;20035;-67
2021/03/20 05:12:51;;;;;;;0.90;0.60;;;;;;;;;;5132870;27;20024;-67
2021/03/20 05:15:23;;;;;;;1.10;0.85;;;;;;;;;;5131995;27;20092;-68
2021/03/20 05:17:49;;;;;;;0.25;0.25;;;;;;;;;;5132445;27;20130;-68
2021/03/20 05:20:15;;;;;;;0.50;0.50;;;;;;;;;;5131707;27;20026;-67
2021/03/20 05:22:41;;;;;;;0.63;0.63;;;;;;;;;;5132919;27;20075;-67
2021/03/20 05:25:07;;;;;;;1.13;0.90;;;;;;;;;;5132239;27;20374;-67
2021/03/20 05:27:34;;;;;;;0.45;0.45;;;;;;;;;;5132694;27;20030;-67
2021/03/20 05:30:00;;;;;;;0.98;0.63;;;;;;;;;;5131905;27;20027;-67
2021/03/20 05:32:31;;;;;;;0.77;0.70;;;;;;;;;;5132730;27;20031;-67
2021/03/20 05:34:59;;;;;;;0.52;0.40;;;;;;;;;;5132343;27;20042;-67
2021/03/20 05:37:30;;;;;;;0.60;0.60;;;;;;;;;;5132027;27;20039;-67
2021/03/20 05:39:56;;;;;;;0.45;0.45;;;;;;;;;;5132162;27;20023;-67
2021/03/20 05:42:29;;;;;;;0.95;0.95;;;;;;;;;;5132146;27;20027;-67
2021/03/20 05:45:06;;;;;;;0.75;0.70;;;;;;;;;;5132378;27;20027;-67
2021/03/20 05:47:34;;;;;;;1.50;0.90;;;;;;;;;;5132339;27;20130;-67
2021/03/20 05:50:03;;;;;;;1.23;0.77;;;;;;;;;;5131548;27;20039;-67
2021/03/20 05:52:32;;;;;;;0.50;0.50;;;;;;;;;;5132504;27;20080;-67
2021/03/20 05:55:04;;;;;;;0.55;0.55;;;;;;;;;;5132002;27;20509;-67
2021/03/20 05:57:39;;;;;;;0.60;0.60;;;;;;;;;;5132292;27;20042;-67
2021/03/20 06:00:24;;;;;;;0.65;0.47;;;;;;;;;;5130519;27;20068;-67
2021/03/20 06:03:08;;;;;;;0.90;0.70;;;;;;;;;;5132035;27;20473;-67
2021/03/20 06:05:34;;;;;;;0.68;0.57;;;;;;;;;;5131885;27;20465;-67
2021/03/20 06:08:03;;;;;;;0.80;0.80;;;;;;;;;;5131655;27;20088;-67
2021/03/20 06:10:44;;;;;;;0.50;0.50;;;;;;;;;;5131591;27;20562;-67
2021/03/20 06:13:10;;;;;;;1.48;0.73;;;;;;;;;;5131026;27;20035;-67
2021/03/20 06:16:00;;;;;;;1.23;0.98;;;;;;;;;;5132217;27;20055;-68
2021/03/20 06:18:45;;;;;;;0.45;0.45;;;;;;;;;;5118742;27;20035;-67
2021/03/20 06:21:23;;;;;;;0.82;0.73;;;;;;;;;;5130996;27;20026;-67
2021/03/20 06:23:58;;;;;;;1.38;1.13;;;;;;;;;;5132068;27;20028;-67
2021/03/20 06:26:26;;;;;;;1.08;0.98;;;;;;;;;;5131589;27;20039;-67
2021/03/20 06:28:58;;;;;;;0.50;0.50;;;;;;;;;;5131479;27;20110;-67
2021/03/20 06:31:27;;;;;;;0.30;0.30;;;;;;;;;;5131260;27;20039;-67
2021/03/20 06:34:01;;;;;;;0.80;0.80;;;;;;;;;;5131741;27;20064;-67
2021/03/20 06:36:50;;;;;;;0.70;0.43;;;;;;;;;;5131417;27;20031;-67
2021/03/20 06:39:16;;;;;;;0.80;0.70;;;;;;;;;;5117199;27;20064;-67
2021/03/20 06:41:46;;;;;;;0.75;0.73;;;;;;;;;;5131161;27;20450;-67
2021/03/20 06:44:12;;;;;;;0.63;0.63;;;;;;;;;;5130469;27;20031;-67
2021/03/20 06:46:39;;;;;;;0.40;0.40;;;;;;;;;;5131516;27;20031;-67
2021/03/20 06:49:21;;;;;;;0.68;0.68;;;;;;;;;;5129853;27;20036;-67
2021/03/20 06:51:47;;;;;;;0.75;0.55;;;;;;;;;;5131028;27;20033;-67
2021/03/20 06:54:14;;;;;;;0.80;0.80;;;;;;;;;;5130155;27;20031;-67
2021/03/20 06:56:40;;;;;;;0.40;0.40;;;;;;;;;;5131737;27;20363;-67
2021/03/20 06:59:11;;;;;;;0.90;0.90;;;;;;;;;;5129988;27;20039;-67
2021/03/20 07:01:42;;;;;;;1.42;0.65;;;;;;;;;;5130638;27;20035;-67
2021/03/20 07:04:21;;;;;;;0.57;0.55;;;;;;;;;;5129967;27;20030;-67
2021/03/20 07:06:58;;;;;;;0.55;0.50;;;;;;;;;;5130988;27;20031;-67
2021/03/20 07:09:24;;;;;;;1.05;0.95;;;;;;;;;;5130661;27;20023;-67
2021/03/20 07:12:10;;;;;;;0.40;0.40;;;;;;;;;;5130828;27;20446;-67
2021/03/20 07:14:40;;;;;;;0.47;0.47;;;;;;;;;;5130509;27;20029;-67
2021/03/20 07:17:08;;;;;;;0.82;0.80;;;;;;;;;;5130494;27;20027;-67
2021/03/20 07:19:34;;;;;;;1.40;0.95;;;;;;;;;;5130640;27;20023;-67
2021/03/20 07:22:00;;;;;;;0.70;0.70;;;;;;;;;;5130295;28;20035;-67
2021/03/20 07:24:38;;;;;;;0.40;0.35;;;;;;;;;;5130181;28;20092;-67
2021/03/20 07:27:04;;;;;;;0.75;0.75;;;;;;;;;;5129849;28;20035;-67
2021/03/20 07:29:47;;;;;;;0.77;0.77;;;;;;;;;;5130764;28;20418;-67
2021/03/20 07:32:25;;;;;;;1.03;0.63;;;;;;;;;;5130053;28;20031;-67
2021/03/20 07:34:55;;;;;;;0.60;0.60;;;;;;;;;;5130448;28;20031;-67
2021/03/20 07:37:21;;;;;;;1.23;0.73;;;;;;;;;;5130377;28;20407;-67
2021/03/20 07:39:52;;;;;;;1.95;0.52;;;;;;;;;;5130551;28;20053;-67
2021/03/20 07:42:24;;;;;;;0.70;0.70;;;;;;;;;;5129623;28;20554;-67
2021/03/20 07:44:52;;;;;;;0.50;0.50;;;;;;;;;;5130541;28;20023;-67
2021/03/20 07:47:19;;;;;;;1.48;0.60;;;;;;;;;;5130004;28;20409;-67
2021/03/20 07:49:45;;;;;;;0.82;0.70;;;;;;;;;;5130370;28;20016;-67
2021/03/20 07:52:23;;;;;;;0.50;0.50;;;;;;;;;;5130029;28;20448;-67
2021/03/20 07:54:49;;;;;;;0.60;0.60;;;;;;;;;;5130845;28;20023;-67
2021/03/20 07:57:17;;;;;;;0.60;0.60;;;;;;;;;;5129656;28;20027;-67
2021/03/20 07:59:47;;;;;;;0.77;0.75;;;;;;;;;;5130204;28;20652;-67
2021/03/20 08:02:28;;;;;;;0.90;0.65;;;;;;;;;;5132594;27;20038;-67
2021/03/20 08:04:57;;;;;;;0.70;0.70;;;;;;;;;;5134396;27;20031;-67
2021/03/20 08:07:34;;;;;;;0.68;0.68;;;;;;;;;;5134323;27;20118;-67
2021/03/20 08:10:09;;;;;;;0.50;0.50;;;;;;;;;;5133776;27;20027;-67
2021/03/20 08:12:50;;;;;;;1.08;0.80;;;;;;;;;;5133849;27;20027;-67
2021/03/20 08:15:20;;;;;;;1.58;1.10;;;;;;;;;;5133720;27;20408;-67
2021/03/20 08:17:46;;;;;;;1.00;0.90;;;;;;;;;;5134240;27;20031;-67
2021/03/20 08:20:16;;;;;;;0.73;0.70;;;;;;;;;;5133416;27;20027;-67
2021/03/20 08:22:45;;;;;;;0.88;0.88;;;;;;;;;;5133686;27;20111;-67
2021/03/20 08:25:30;;;;;;;0.93;0.93;;;;;;;;;;5133418;27;20111;-67
2021/03/20 08:28:15;;;;;;;1.30;1.00;;;;;;;;;;5133068;27;20031;-67
2021/03/20 08:30:47;;;;;;;1.00;1.00;;;;;;;;;;5133901;27;20031;-68
2021/03/20 08:33:30;;;;;;;0.80;0.80;;;;;;;;;;5132851;27;20504;-67
2021/03/20 08:36:05;;;;;;;0.82;0.82;;;;;;;;;;5133906;27;20015;-68
2021/03/20 08:38:41;;;;;;;1.35;1.25;;;;;;;;;;5133267;27;20035;-68
2021/03/20 08:41:07;;;;;;;1.08;1.00;;;;;;;;;;5132537;27;20027;-67
2021/03/20 08:43:58;;;;;;;1.17;1.17;;;;;;;;;;5133741;27;20027;-68
2021/03/20 08:46:30;;;;;;;1.15;1.00;;;;;;;;;;5133123;27;20085;-67
2021/03/20 08:49:02;;;;;;;1.20;1.13;;;;;;;;;;5133029;27;20116;-67
2021/03/20 08:51:54;;;;;;;1.88;1.60;;;;;;;;;;5133298;27;20059;-68
2021/03/20 08:54:20;;;;;;;1.13;1.10;;;;;;;;;;5121941;27;20099;-67
2021/03/20 08:57:05;;;;;;;1.60;1.50;;;;;;;;;;5134052;27;20415;-68
2021/03/20 08:59:46;;;;;;;1.33;1.23;;;;;;;;;;5132672;27;20082;-68
2021/03/20 09:02:24;;;;;;;1.40;1.30;;;;;;;;;;5131002;27;20374;-68
2021/03/20 09:04:55;;;;;;;1.85;1.73;;;;;;;;;;5132728;27;20019;-68
2021/03/20 09:07:23;;;;;;;1.38;1.27;;;;;;;;;;5132033;27;20070;-68
2021/03/20 09:09:56;;;;;;;1.50;1.40;;;;;;;;;;5114160;27;20366;-68
2021/03/20 09:12:37;;;;;;;1.70;1.30;;;;;;;;;;5130944;27;20027;-68
2021/03/20 09:15:08;;;;;;;1.38;1.27;;;;;;;;;;5132068;27;20136;-67
2021/03/20 09:17:36;;;;;;;1.55;1.45;;;;;;;;;;5132723;27;20027;-68
2021/03/20 09:20:14;;;;;;;1.55;1.45;;;;;;;;;;5131970;27;20027;-67
2021/03/20 09:22:45;;;;;;;1.60;1.15;;;;;;;;;;5132293;27;20023;-67
2021/03/20 09:25:19;;;;;;;2.88;2.50;;;;;;;;;;5131951;27;20155;-67
2021/03/20 09:28:03;;;;;;;1.63;1.52;;;;;;;;;;5132278;27;20035;-67
2021/03/20 09:30:29;;;;;;;1.45;1.27;;;;;;;;;;5131961;27;20023;-68
2021/03/20 09:32:55;;;;;;;1.38;1.20;;;;;;;;;;5132023;27;20027;-68
2021/03/20 09:35:24;;;;;;;1.63;1.48;;;;;;;;;;5132138;27;20046;-68
2021/03/20 09:37:52;;;;;;;1.60;1.50;;;;;;;;;;5132418;27;20432;-68
2021/03/20 09:40:37;;;;;;;1.50;1.40;;;;;;;;;;5131476;27;20031;-68
2021/03/20 09:43:17;;;;;;;2.38;1.88;;;;;;;;;;5131564;27;20035;-68
2021/03/20 09:45:43;;;;;;;1.90;1.67;;;;;;;;;;5132254;27;20023;-68
2021/03/20 09:48:09;;;;;;;3.35;2.47;;;;;;;;;;5131638;27;20024;-67
2021/03/20 09:50:35;;;;;;;2.10;2.00;;;;;;;;;;5132049;27;20054;-68
2021/03/20 09:53:11;;;;;;;1.60;1.50;;;;;;;;;;5131678;27;20068;-68
2021/03/20 09:55:37;;;;;;;1.90;1.70;;;;;;;;;;5132211;27;20023;-67
2021/03/20 09:58:04;;;;;;;1.85;1.75;;;;;;;;;;5131249;27;20065;-68
2021/03/20 10:00:46;;;;;;;1.38;1.27;;;;;;;;;;5131572;27;20038;-68
2021/03/20 10:03:32;;;;;;;3.13;2.47;;;;;;;;;;5131667;27;20038;-67
2021/03/20 10:06:11;;;;;;;1.95;1.45;;;;;;;;;;5131448;27;20027;-67
2021/03/20 10:08:56;;;;;;;2.03;1.80;;;;;;;;;;5132286;27;20420;-68
2021/03/20 10:11:45;;;;;;;3.03;2.55;;;;;;;;;;5131558;27;20019;-68
2021/03/20 10:14:28;;;;;;;1.70;1.60;;;;;;;;;;5083613;27;20035;-68
2021/03/20 10:17:07;;;;;;;3.33;2.13;;;;;;;;;;5131537;27;20454;-68
2021/03/20 10:19:42;;;;;;;1.80;1.70;;;;;;;;;;5131705;27;20034;-68
2021/03/20 10:22:09;;;;;;;2.40;1.77;;;;;;;;;;5131032;27;20076;-68
2021/03/20 10:24:36;;;;;;;1.55;1.30;;;;;;;;;;5131931;27;20477;-67
2021/03/20 10:27:06;;;;;;;3.97;2.67;;;;;;;;;;5130804;27;20176;-67
2021/03/20 10:29:38;;;;;;;2.85;2.45;;;;;;;;;;5131433;27;20299;-67
2021/03/20 10:32:06;;;;;;;2.08;1.58;;;;;;;;;;5130271;27;20023;-67
2021/03/20 10:34:43;;;;;;;1.75;1.65;;;;;;;;;;5131453;27;20434;-67
2021/03/20 10:37:10;;;;;;;1.60;1.50;;;;;;;;;;5130710;27;20079;-67
2021/03/20 10:39:38;;;;;;;1.70;1.60;;;;;;;;;;5110639;28;20031;-68
2021/03/20 10:42:12;;;;;;;3.50;2.60;;;;;;;;;;5109890;28;20024;-67
2021/03/20 10:44:39;;;;;;;1.90;1.70;;;;;;;;;;5110852;28;20046;-68
2021/03/20 10:47:43;;;;;;;2.03;1.67;;;;;;;;;;5110166;28;20135;-67
2021/03/20 10:50:15;;;;;;;2.00;1.80;;;;;;;;;;5046928;28;20107;-67
2021/03/20 10:52:42;;;;;;;2.63;2.22;;;;;;;;;;5101746;28;20126;-67
2021/03/20 10:55:17;;;;;;;1.83;1.73;;;;;;;;;;5110231;28;20305;-67
2021/03/20 10:57:44;;;;;;;1.65;1.55;;;;;;;;;;5110435;28;20031;-67
2021/03/20 11:00:29;;;;;;;1.38;1.27;;;;;;;;;;5091240;28;20141;-67
2021/03/20 11:03:08;;;;;;;1.52;1.40;;;;;;;;;;5089810;28;20070;-67
2021/03/20 11:05:35;;;;;;;1.75;1.65;;;;;;;;;;5090071;28;20380;-68
2021/03/20 11:08:21;;;;;;;3.42;1.90;;;;;;;;;;5089556;28;20402;-67
2021/03/20 11:10:52;;;;;;;2.20;2.00;;;;;;;;;;5089705;28;20035;-67
2021/03/20 11:13:18;;;;;;;3.40;1.92;;;;;;;;;;5071283;28;20232;-67
2021/03/20 11:15:45;;;;;;;2.38;2.15;;;;;;;;;;5104590;28;20438;-68
2021/03/20 11:18:17;;;;;;;1.25;1.15;;;;;;;;;;5110029;28;20034;-67
2021/03/20 11:20:44;;;;;;;1.88;1.33;;;;;;;;;;5109866;28;20024;-67
2021/03/20 11:23:27;;;;;;;1.42;1.27;;;;;;;;;;5109576;28;20035;-67
2021/03/20 11:25:53;;;;;;;1.90;1.42;;;;;;;;;;5110313;28;20088;-67
2021/03/20 11:28:34;;;;;;;1.33;1.20;;;;;;;;;;5109606;28;20038;-67
2021/03/20 11:31:02;;;;;;;1.85;1.75;;;;;;;;;;5109471;28;20520;-67
2021/03/20 11:33:29;;;;;;;1.75;1.65;;;;;;;;;;5109607;28;20027;-68
2021/03/20 11:35:56;;;;;;;1.33;1.23;;;;;;;;;;5111299;28;20479;-67
2021/03/20 11:38:23;;;;;;;1.65;1.35;;;;;;;;;;5114363;28;20024;-68
2021/03/20 11:40:55;;;;;;;1.35;1.20;;;;;;;;;;5113599;28;20140;-68
2021/03/20 11:43:24;;;;;;;1.20;1.15;;;;;;;;;;5114279;28;20028;-68
2021/03/20 11:45:51;;;;;;;1.20;1.10;;;;;;;;;;5114106;28;20027;-68
2021/03/20 11:48:28;;;;;;;1.88;1.67;;;;;;;;;;5113841;28;20074;-68
2021/03/20 11:50:55;;;;;;;2.30;2.08;;;;;;;;;;5113619;28;20444;-68
2021/03/20 11:53:24;;;;;;;1.38;1.10;;;;;;;;;;5113714;28;20109;-68
2021/03/20 11:55:52;;;;;;;1.67;1.58;;;;;;;;;;5113900;28;20099;-68
2021/03/20 11:58:34;;;;;;;3.10;1.42;;;;;;;;;;5112749;28;20142;-68
2021/03/20 12:01:19;;;;;;;1.30;1.20;;;;;;;;;;5113086;28;20028;-68
2021/03/20 12:03:45;;;;;;;2.40;2.05;;;;;;;;;;5114040;28;20019;-68
2021/03/20 12:06:17;;;;;;;1.20;1.10;;;;;;;;;;5113381;28;20031;-68
2021/03/20 12:08:44;;;;;;;1.13;0.85;;;;;;;;;;5113560;28;20051;-68
2021/03/20 12:11:12;;;;;;;1.33;1.23;;;;;;;;;;5113165;28;20030;-68
2021/03/20 12:13:38;;;;;;;1.23;1.13;;;;;;;;;;5113533;28;20035;-68
2021/03/20 12:16:04;;;;;;;2.38;1.75;;;;;;;;;;5113082;28;20439;-67
2021/03/20 12:18:32;;;;;;;1.95;1.35;;;;;;;;;;5113838;28;20031;-68
2021/03/20 12:21:07;;;;;;;1.35;1.25;;;;;;;;;;5113196;28;20406;-68
2021/03/20 12:23:35;;;;;;;1.65;1.38;;;;;;;;;;5113543;28;20032;-68
2021/03/20 12:26:01;;;;;;;1.40;1.30;;;;;;;;;;5113205;28;20032;-68
2021/03/20 12:28:31;;;;;;;1.33;1.23;;;;;;;;;;5112904;28;20239;-68
2021/03/20 12:31:16;;;;;;;1.23;1.13;;;;;;;;;;5112772;28;20027;-68
2021/03/20 12:33:48;;;;;;;1.00;0.90;;;;;;;;;;5113082;28;20383;-68
2021/03/20 12:36:38;;;;;;;1.75;1.48;;;;;;;;;;5112655;28;20166;-67
2021/03/20 12:39:06;;;;;;;1.15;0.95;;;;;;;;;;5115938;27;20031;-68
2021/03/20 12:41:33;;;;;;;1.40;1.10;;;;;;;;;;5133030;27;20106;-68
2021/03/20 12:44:02;;;;;;;1.65;1.55;;;;;;;;;;5133655;27;20125;-68
2021/03/20 12:46:28;;;;;;;0.73;0.73;;;;;;;;;;5133078;27;20112;-68
2021/03/20 12:48:55;;;;;;;1.17;1.10;;;;;;;;;;5132330;27;20031;-68
2021/03/20 12:51:23;;;;;;;1.50;1.40;;;;;;;;;;5132775;27;20031;-68
2021/03/20 12:53:49;;;;;;;1.00;1.00;;;;;;;;;;5133659;27;20031;-68
2021/03/20 12:56:15;;;;;;;2.05;1.27;;;;;;;;;;5132876;27;20453;-67
2021/03/20 12:58:41;;;;;;;1.00;0.95;;;;;;;;;;5133227;27;20550;-68
2021/03/20 13:01:07;;;;;;;2.10;1.05;;;;;;;;;;5132544;27;20382;-68
2021/03/20 13:03:34;;;;;;;1.27;1.15;;;;;;;;;;5133370;27;20451;-68
2021/03/20 13:06:00;;;;;;;1.27;1.20;;;;;;;;;;5133180;27;20114;-68
2021/03/20 13:08:26;;;;;;;1.63;1.52;;;;;;;;;;5133363;27;20023;-68
2021/03/20 13:10:53;;;;;;;1.15;1.05;;;;;;;;;;5132791;27;20390;-68
2021/03/20 13:13:20;;;;;;;1.38;1.27;;;;;;;;;;5133027;27;20031;-68
2021/03/20 13:15:46;;;;;;;0.82;0.82;;;;;;;;;;5118091;27;20076;-68
2021/03/20 13:18:12;;;;;;;1.13;1.05;;;;;;;;;;5112103;28;20031;-68
2021/03/20 13:20:39;;;;;;;1.65;1.27;;;;;;;;;;5112484;28;20028;-68
2021/03/20 13:23:05;;;;;;;0.93;0.80;;;;;;;;;;5112050;28;20036;-68
2021/03/20 13:25:36;;;;;;;0.55;0.55;;;;;;;;;;5112692;28;20059;-68
2021/03/20 13:28:03;;;;;;;1.02;0.90;;;;;;;;;;5111495;28;20452;-68
2021/03/20 13:30:31;;;;;;;1.17;1.08;;;;;;;;;;5112036;28;20035;-68
2021/03/20 13:32:57;;;;;;;1.25;0.80;;;;;;;;;;5111562;28;20240;-68
2021/03/20 13:35:24;;;;;;;1.02;1.02;;;;;;;;;;5112073;28;20173;-67
2021/03/20 13:37:51;;;;;;;0.73;0.73;;;;;;;;;;5112044;28;20118;-68
2021/03/20 13:40:18;;;;;;;1.30;1.23;;;;;;;;;;5111558;28;20036;-68
2021/03/20 13:42:44;;;;;;;1.40;0.75;;;;;;;;;;5111788;28;20035;-68
2021/03/20 13:45:12;;;;;;;1.15;0.90;;;;;;;;;;5111492;28;20031;-68
2021/03/20 13:47:38;;;;;;;0.95;0.88;;;;;;;;;;5111910;28;20062;-68
2021/03/20 13:50:05;;;;;;;1.02;0.93;;;;;;;;;;5111426;28;20020;-68
2021/03/20 13:52:31;;;;;;;0.93;0.93;;;;;;;;;;5112010;28;20553;-68
2021/03/20 13:54:57;;;;;;;1.05;0.70;;;;;;;;;;5111719;28;20026;-67
2021/03/20 13:57:23;;;;;;;0.70;0.70;;;;;;;;;;5111270;28;20039;-68
2021/03/20 13:59:49;;;;;;;1.10;1.00;;;;;;;;;;5113236;27;20051;-68
2021/03/20 14:02:16;;;;;;;1.27;1.00;;;;;;;;;;5110675;28;20032;-67
2021/03/20 14:04:47;;;;;;;1.38;0.70;;;;;;;;;;5111520;28;20032;-68
2021/03/20 14:07:39;;;;;;;0.88;0.60;;;;;;;;;;5111409;28;20096;-67
2021/03/20 14:10:07;;;;;;;1.13;1.02;;;;;;;;;;5106919;28;20398;-68
2021/03/20 14:12:33;;;;;;;0.70;0.70;;;;;;;;;;5111162;28;20435;-67
2021/03/20 14:14:59;;;;;;;1.45;1.15;;;;;;;;;;5110967;28;20115;-67
2021/03/20 14:17:25;;;;;;;1.10;1.05;;;;;;;;;;5111256;28;20046;-67
2021/03/20 14:19:52;;;;;;;2.63;1.17;;;;;;;;;;5111546;28;20051;-67
2021/03/20 14:22:18;;;;;;;1.15;0.80;;;;;;;;;;5110687;28;20040;-68
2021/03/20 14:24:44;;;;;;;1.23;0.80;;;;;;;;;;5111575;28;20056;-69
2021/03/20 14:27:10;;;;;;;1.30;0.93;;;;;;;;;;5110878;28;20123;-67
2021/03/20 14:29:36;;;;;;;1.02;0.90;;;;;;;;;;5111179;28;20427;-68
2021/03/20 14:32:03;;;;;;;0.82;0.80;;;;;;;;;;5109802;28;20037;-67
2021/03/20 14:34:29;;;;;;;1.30;0.82;;;;;;;;;;5108653;28;20191;-68
2021/03/20 14:36:55;;;;;;;1.05;0.90;;;;;;;;;;5110877;28;20032;-68
2021/03/20 14:39:21;;;;;;;1.15;1.10;;;;;;;;;;5128721;27;20149;-67
2021/03/20 14:41:48;;;;;;;1.42;0.88;;;;;;;;;;5130495;27;20034;-68
2021/03/20 14:44:14;;;;;;;0.88;0.88;;;;;;;;;;5130788;27;20027;-68
2021/03/20 14:46:42;;;;;;;0.60;0.60;;;;;;;;;;5131392;27;20035;-67
2021/03/20 14:49:08;;;;;;;2.08;1.00;;;;;;;;;;5130679;27;20031;-67
2021/03/20 14:51:34;;;;;;;1.17;0.90;;;;;;;;;;5112779;27;20126;-68
2021/03/20 14:54:00;;;;;;;0.75;0.70;;;;;;;;;;5130386;27;20037;-68
2021/03/20 14:56:26;;;;;;;0.50;0.50;;;;;;;;;;5130790;27;20028;-68
2021/03/20 14:58:53;;;;;;;0.80;0.80;;;;;;;;;;5130739;27;20062;-67
2021/03/20 15:01:19;;;;;;;0.60;0.60;;;;;;;;;;5130386;27;20119;-67
2021/03/20 15:03:45;;;;;;;0.77;0.70;;;;;;;;;;5130080;27;20034;-67